PWSweather.com
Personal Weather Stations
Station Observations
KNYLONGL2
Adirondack Acres, Long Lake, NY 12847

Adirondack AcresLong Lake, NY 12847

Lat: 43.979118, Lon: -74.43445500000001

Elevation: 1650

Station Type: Oregon Scientific

http://www.adirondackacres.com

Latest ConditionsUpdated 8:35:00 PM EDT Thursday, Jul 27, 2017
Currently Today's Max Today's Min Today's Average
Temperature 63.4°F17.4°C 72.1°F22.3°C 61.4°F16.3°C 64.7°F18.2°C
Dew Point 61.6°F16.4°C 64.3°F17.9°C 58.6°F14.8°C 61.1°F16.2°C
Winds Calm Calm 6.0 mph SSW9.7 kmh SSW - 2.2 mph 3.5 kmh
Wind Gusts -- 15.0 mph24.1 kmh - -
Humidity 94% 96% 67% 89%
Pressure 29.81 in1009.5 mb 29.96 in1014.6 mb 29.77 in1008.1 mb -
Precipitation - 0.09 in2.3 mm - -
Hour Temp Dew Point Humidity Winds Wind Gusts Pressure Precip Precip Rate Daily Precip Total
08:35 PM 63.4°F17.4°C 61.6°F16.4°C 94% Calm Calm -- 29.81 in1009.5 mb 0.02 in0.5 mm 0.00 in0.0 mm 0.09 in2.3 mm
08:30 PM 63.5°F17.5°C 61.7°F16.5°C 94% Calm Calm -- 29.81 in1009.5 mb 0.02 in0.5 mm 0.00 in0.0 mm 0.09 in2.3 mm
08:25 PM 63.6°F17.6°C 61.8°F16.6°C 94% Calm Calm -- 29.81 in1009.5 mb 0.02 in0.5 mm 0.00 in0.0 mm 0.09 in2.3 mm
08:20 PM 63.6°F17.6°C 61.8°F16.6°C 94% Calm Calm -- 29.81 in1009.5 mb 0.02 in0.5 mm 0.00 in0.0 mm 0.09 in2.3 mm
08:15 PM 63.7°F17.6°C 61.9°F16.6°C 94% Calm Calm -- 29.81 in1009.5 mb 0.02 in0.5 mm 0.12 in3.0 mm 0.09 in2.3 mm
08:10 PM 63.7°F17.6°C 61.6°F16.4°C 93% Calm Calm -- 29.80 in1009.1 mb 0.01 in0.3 mm 0.00 in0.0 mm 0.08 in2.0 mm
08:05 PM 63.8°F17.7°C 61.7°F16.5°C 93% Calm Calm -- 29.81 in1009.5 mb 0.01 in0.3 mm 0.00 in0.0 mm 0.07 in1.8 mm
08:00 PM 63.9°F17.7°C 61.8°F16.6°C 93% Calm Calm -- 29.81 in1009.5 mb 0.01 in0.3 mm 0.00 in0.0 mm 0.07 in1.8 mm
07:55 PM 64.0°F17.8°C 61.6°F16.4°C 92% 1.0 mph SE1.6 kmh SE 2.0 mph3.2 kmh 29.80 in1009.1 mb 0.01 in0.3 mm 0.00 in0.0 mm 0.07 in1.8 mm
07:50 PM 64.1°F17.8°C 61.4°F16.3°C 91% 1.0 mph SE1.6 kmh SE 3.0 mph4.8 kmh 29.80 in1009.1 mb 0.01 in0.3 mm 0.00 in0.0 mm 0.07 in1.8 mm
07:45 PM 64.1°F17.8°C 61.4°F16.3°C 91% 1.0 mph ESE1.6 kmh ESE 3.0 mph4.8 kmh 29.80 in1009.1 mb 0.01 in0.3 mm 0.00 in0.0 mm 0.07 in1.8 mm
07:40 PM 64.2°F17.9°C 61.2°F16.2°C 90% Calm Calm 2.0 mph3.2 kmh 29.80 in1009.1 mb 0.01 in0.3 mm 0.00 in0.0 mm 0.07 in1.8 mm
07:35 PM 64.3°F17.9°C 61.0°F16.1°C 89% Calm Calm 2.0 mph3.2 kmh 29.80 in1009.1 mb 0.01 in0.3 mm 0.00 in0.0 mm 0.07 in1.8 mm
07:30 PM 64.5°F18.1°C 61.2°F16.2°C 89% 1.0 mph E1.6 kmh E 2.0 mph3.2 kmh 29.80 in1009.1 mb 0.01 in0.3 mm 0.00 in0.0 mm 0.07 in1.8 mm
07:25 PM 64.9°F18.3°C 61.3°F16.3°C 88% 1.0 mph ENE1.6 kmh ENE 2.0 mph3.2 kmh 29.80 in1009.1 mb 0.01 in0.3 mm 0.00 in0.0 mm 0.07 in1.8 mm
07:20 PM 65.2°F18.4°C 61.2°F16.2°C 87% 1.0 mph NE1.6 kmh NE 3.0 mph4.8 kmh 29.80 in1009.1 mb 0.01 in0.3 mm 0.00 in0.0 mm 0.07 in1.8 mm
07:15 PM 65.9°F18.8°C 61.3°F16.3°C 85% 1.0 mph E1.6 kmh E 3.0 mph4.8 kmh 29.80 in1009.1 mb 0.01 in0.3 mm 0.00 in0.0 mm 0.07 in1.8 mm
07:10 PM 66.8°F19.3°C 61.5°F16.4°C 83% 2.0 mph ENE3.2 kmh ENE 5.0 mph8.0 kmh 29.80 in1009.1 mb 0.01 in0.3 mm 0.12 in3.0 mm 0.07 in1.8 mm
07:05 PM 67.8°F19.9°C 61.4°F16.3°C 80% 2.0 mph NE3.2 kmh NE 5.0 mph8.0 kmh 29.80 in1009.1 mb 0.00 in0.0 mm 0.00 in0.0 mm 0.06 in1.5 mm
07:00 PM 68.8°F20.4°C 61.3°F16.3°C 77% 2.0 mph NE3.2 kmh NE 5.0 mph8.0 kmh 29.79 in1008.8 mb 0.00 in0.0 mm 0.00 in0.0 mm 0.06 in1.5 mm
06:55 PM 69.8°F21.0°C 62.3°F16.8°C 77% 2.0 mph SSW3.2 kmh SSW 4.0 mph6.4 kmh 29.79 in1008.8 mb 0.00 in0.0 mm 0.00 in0.0 mm 0.06 in1.5 mm
06:50 PM 70.2°F21.2°C 61.9°F16.6°C 75% 3.0 mph SSW4.8 kmh SSW 5.0 mph8.0 kmh 29.78 in1008.5 mb 0.00 in0.0 mm 0.00 in0.0 mm 0.06 in1.5 mm
06:45 PM 70.4°F21.3°C 61.7°F16.5°C 74% 3.0 mph SSW4.8 kmh SSW 5.0 mph8.0 kmh 29.79 in1008.8 mb 0.00 in0.0 mm 0.00 in0.0 mm 0.06 in1.5 mm
06:40 PM 70.6°F21.4°C 61.9°F16.6°C 74% 2.0 mph SSW3.2 kmh SSW 5.0 mph8.0 kmh 29.78 in1008.5 mb 0.00 in0.0 mm 0.00 in0.0 mm 0.06 in1.5 mm
06:35 PM 70.8°F21.6°C 61.7°F16.5°C 73% 2.0 mph SSW3.2 kmh SSW 5.0 mph8.0 kmh 29.78 in1008.5 mb 0.00 in0.0 mm 0.00 in0.0 mm 0.06 in1.5 mm
06:30 PM 71.0°F21.7°C 61.9°F16.6°C 73% 2.0 mph S3.2 kmh S 5.0 mph8.0 kmh 29.78 in1008.5 mb 0.00 in0.0 mm 0.00 in0.0 mm 0.06 in1.5 mm
06:25 PM 71.2°F21.8°C 61.7°F16.5°C 72% 2.0 mph S3.2 kmh S 4.0 mph6.4 kmh 29.78 in1008.5 mb 0.00 in0.0 mm 0.00 in0.0 mm 0.06 in1.5 mm
06:20 PM 71.5°F21.9°C 61.6°F16.4°C 71% 2.0 mph SSW3.2 kmh SSW 6.0 mph9.7 kmh 29.78 in1008.5 mb 0.00 in0.0 mm 0.00 in0.0 mm 0.06 in1.5 mm
06:15 PM 71.8°F22.1°C 61.1°F16.2°C 69% 2.0 mph SSW3.2 kmh SSW 6.0 mph9.7 kmh 29.78 in1008.5 mb 0.00 in0.0 mm 0.00 in0.0 mm 0.06 in1.5 mm
06:10 PM 71.8°F22.1°C 61.9°F16.6°C 71% 3.0 mph SSW4.8 kmh SSW 6.0 mph9.7 kmh 29.77 in1008.1 mb 0.00 in0.0 mm 0.00 in0.0 mm 0.06 in1.5 mm
06:05 PM 71.6°F22.0°C 61.3°F16.3°C 70% 3.0 mph SSW4.8 kmh SSW 6.0 mph9.7 kmh 29.77 in1008.1 mb 0.00 in0.0 mm 0.00 in0.0 mm 0.06 in1.5 mm
06:00 PM 71.6°F22.0°C 62.1°F16.7°C 72% 3.0 mph SSW4.8 kmh SSW 6.0 mph9.7 kmh 29.77 in1008.1 mb 0.00 in0.0 mm 0.00 in0.0 mm 0.06 in1.5 mm
05:55 PM 71.6°F22.0°C 61.3°F16.3°C 70% 3.0 mph SSW4.8 kmh SSW 6.0 mph9.7 kmh 29.77 in1008.1 mb 0.00 in0.0 mm 0.00 in0.0 mm 0.06 in1.5 mm
05:50 PM 71.7°F22.1°C 61.0°F16.1°C 69% 3.0 mph SSW4.8 kmh SSW 8.0 mph12.9 kmh 29.77 in1008.1 mb 0.00 in0.0 mm 0.00 in0.0 mm 0.06 in1.5 mm
05:45 PM 71.9°F22.2°C 60.3°F15.7°C 67% 3.0 mph SSW4.8 kmh SSW 8.0 mph12.9 kmh 29.78 in1008.5 mb 0.00 in0.0 mm 0.00 in0.0 mm 0.06 in1.5 mm
05:40 PM 72.1°F22.3°C 61.0°F16.1°C 68% 3.0 mph SSW4.8 kmh SSW 7.0 mph11.3 kmh 29.77 in1008.1 mb 0.00 in0.0 mm 0.00 in0.0 mm 0.06 in1.5 mm
05:35 PM 72.1°F22.3°C 61.8°F16.6°C 70% 3.0 mph S4.8 kmh S 8.0 mph12.9 kmh 29.77 in1008.1 mb 0.00 in0.0 mm 0.00 in0.0 mm 0.06 in1.5 mm
05:30 PM 71.9°F22.2°C 61.2°F16.2°C 69% 3.0 mph SSW4.8 kmh SSW 8.0 mph12.9 kmh 29.77 in1008.1 mb 0.00 in0.0 mm 0.00 in0.0 mm 0.06 in1.5 mm
05:25 PM 71.6°F22.0°C 62.1°F16.7°C 72% 3.0 mph SSW4.8 kmh SSW 8.0 mph12.9 kmh 29.77 in1008.1 mb 0.00 in0.0 mm 0.00 in0.0 mm 0.06 in1.5 mm
05:20 PM 71.5°F21.9°C 61.2°F16.2°C 70% 4.0 mph SSW6.4 kmh SSW 9.0 mph14.5 kmh 29.78 in1008.5 mb 0.00 in0.0 mm 0.00 in0.0 mm 0.06 in1.5 mm
05:15 PM 71.7°F22.1°C 61.0°F16.1°C 69% 5.0 mph SSW8.0 kmh SSW 9.0 mph14.5 kmh 29.77 in1008.1 mb 0.00 in0.0 mm 0.00 in0.0 mm 0.06 in1.5 mm
05:10 PM 71.6°F22.0°C 61.3°F16.3°C 70% 5.0 mph S8.0 kmh S 11.0 mph17.7 kmh 29.78 in1008.5 mb 0.00 in0.0 mm 0.00 in0.0 mm 0.06 in1.5 mm
05:05 PM 71.6°F22.0°C 60.5°F15.8°C 68% 5.0 mph SSW8.0 kmh SSW 11.0 mph17.7 kmh 29.78 in1008.5 mb 0.00 in0.0 mm 0.00 in0.0 mm 0.06 in1.5 mm
05:00 PM 71.5°F21.9°C 61.2°F16.2°C 70% 3.0 mph SSW4.8 kmh SSW 7.0 mph11.3 kmh 29.78 in1008.5 mb 0.00 in0.0 mm 0.00 in0.0 mm 0.06 in1.5 mm
04:55 PM 71.5°F21.9°C 60.8°F16.0°C 69% 4.0 mph SSW6.4 kmh SSW 9.0 mph14.5 kmh 29.78 in1008.5 mb 0.00 in0.0 mm 0.00 in0.0 mm 0.06 in1.5 mm
04:50 PM 71.7°F22.1°C 61.0°F16.1°C 69% 4.0 mph S6.4 kmh S 9.0 mph14.5 kmh 29.78 in1008.5 mb 0.00 in0.0 mm 0.00 in0.0 mm 0.06 in1.5 mm
04:45 PM 71.6°F22.0°C 61.3°F16.3°C 70% 4.0 mph SSW6.4 kmh SSW 9.0 mph14.5 kmh 29.79 in1008.8 mb 0.00 in0.0 mm 0.00 in0.0 mm 0.06 in1.5 mm
04:40 PM 71.7°F22.1°C 61.0°F16.1°C 69% 3.0 mph SSW4.8 kmh SSW 9.0 mph14.5 kmh 29.79 in1008.8 mb 0.00 in0.0 mm 0.00 in0.0 mm 0.06 in1.5 mm
04:35 PM 71.7°F22.1°C 61.0°F16.1°C 69% 3.0 mph SSW4.8 kmh SSW 9.0 mph14.5 kmh 29.79 in1008.8 mb 0.00 in0.0 mm 0.00 in0.0 mm 0.06 in1.5 mm
04:30 PM 71.7°F22.1°C 60.6°F15.9°C 68% 4.0 mph S6.4 kmh S 10.0 mph16.1 kmh 29.79 in1008.8 mb 0.00 in0.0 mm 0.00 in0.0 mm 0.06 in1.5 mm
04:25 PM 71.8°F22.1°C 61.5°F16.4°C 70% 3.0 mph SSW4.8 kmh SSW 10.0 mph16.1 kmh 29.79 in1008.8 mb 0.00 in0.0 mm 0.00 in0.0 mm 0.06 in1.5 mm
04:20 PM 71.7°F22.1°C 61.0°F16.1°C 69% 3.0 mph SSW4.8 kmh SSW 9.0 mph14.5 kmh 29.79 in1008.8 mb 0.00 in0.0 mm 0.00 in0.0 mm 0.06 in1.5 mm
04:15 PM 71.6°F22.0°C 61.7°F16.5°C 71% 5.0 mph SSW8.0 kmh SSW 11.0 mph17.7 kmh 29.80 in1009.1 mb 0.00 in0.0 mm 0.00 in0.0 mm 0.06 in1.5 mm
04:10 PM 71.7°F22.1°C 60.6°F15.9°C 68% 5.0 mph SSW8.0 kmh SSW 11.0 mph17.7 kmh 29.80 in1009.1 mb 0.00 in0.0 mm 0.00 in0.0 mm 0.06 in1.5 mm
04:05 PM 71.8°F22.1°C 61.5°F16.4°C 70% 4.0 mph SSW6.4 kmh SSW 12.0 mph19.3 kmh 29.80 in1009.1 mb 0.00 in0.0 mm 0.00 in0.0 mm 0.06 in1.5 mm
04:00 PM 72.0°F22.2°C 61.3°F16.3°C 69% 4.0 mph SSW6.4 kmh SSW 12.0 mph19.3 kmh 29.80 in1009.1 mb 0.00 in0.0 mm 0.00 in0.0 mm 0.06 in1.5 mm
03:55 PM 72.0°F22.2°C 61.3°F16.3°C 69% 5.0 mph SSW8.0 kmh SSW 12.0 mph19.3 kmh 29.80 in1009.1 mb 0.00 in0.0 mm 0.00 in0.0 mm 0.06 in1.5 mm
03:50 PM 71.9°F22.2°C 61.6°F16.4°C 70% 4.0 mph SSW6.4 kmh SSW 15.0 mph24.1 kmh 29.81 in1009.5 mb 0.00 in0.0 mm 0.00 in0.0 mm 0.06 in1.5 mm
03:45 PM 71.7°F22.1°C 62.2°F16.8°C 72% 3.0 mph SW4.8 kmh SW 15.0 mph24.1 kmh 29.81 in1009.5 mb 0.00 in0.0 mm 0.00 in0.0 mm 0.06 in1.5 mm
03:40 PM 71.7°F22.1°C 61.0°F16.1°C 69% 4.0 mph SSW6.4 kmh SSW 13.0 mph20.9 kmh 29.81 in1009.5 mb 0.00 in0.0 mm 0.00 in0.0 mm 0.06 in1.5 mm
03:35 PM 71.9°F22.2°C 61.2°F16.2°C 69% 4.0 mph SSW6.4 kmh SSW 13.0 mph20.9 kmh 29.81 in1009.5 mb 0.00 in0.0 mm 0.00 in0.0 mm 0.06 in1.5 mm
03:30 PM 71.5°F21.9°C 62.8°F17.1°C 74% 4.0 mph SSW6.4 kmh SSW 9.0 mph14.5 kmh 29.81 in1009.5 mb 0.00 in0.0 mm 0.00 in0.0 mm 0.06 in1.5 mm
03:25 PM 70.9°F21.6°C 61.4°F16.3°C 72% 4.0 mph SSW6.4 kmh SSW 9.0 mph14.5 kmh 29.81 in1009.5 mb 0.00 in0.0 mm 0.00 in0.0 mm 0.06 in1.5 mm
03:20 PM 70.5°F21.4°C 61.0°F16.1°C 72% 5.0 mph S8.0 kmh S 12.0 mph19.3 kmh 29.82 in1009.8 mb 0.00 in0.0 mm 0.00 in0.0 mm 0.06 in1.5 mm
03:15 PM 70.0°F21.1°C 60.9°F16.1°C 73% 5.0 mph S8.0 kmh S 12.0 mph19.3 kmh 29.82 in1009.8 mb 0.00 in0.0 mm 0.00 in0.0 mm 0.06 in1.5 mm
03:10 PM 70.1°F21.2°C 61.0°F16.1°C 73% 5.0 mph SSW8.0 kmh SSW 12.0 mph19.3 kmh 29.82 in1009.8 mb 0.00 in0.0 mm 0.00 in0.0 mm 0.06 in1.5 mm
03:05 PM 70.1°F21.2°C 62.2°F16.8°C 76% 4.0 mph SSW6.4 kmh SSW 12.0 mph19.3 kmh 29.82 in1009.8 mb 0.00 in0.0 mm 0.00 in0.0 mm 0.06 in1.5 mm
03:00 PM 69.8°F21.0°C 61.9°F16.6°C 76% 3.0 mph SSW4.8 kmh SSW 10.0 mph16.1 kmh 29.83 in1010.2 mb 0.00 in0.0 mm 0.00 in0.0 mm 0.06 in1.5 mm
02:55 PM 69.3°F20.7°C 62.9°F17.2°C 80% 4.0 mph SSW6.4 kmh SSW 11.0 mph17.7 kmh 29.82 in1009.8 mb 0.00 in0.0 mm 0.00 in0.0 mm 0.06 in1.5 mm
02:50 PM 68.9°F20.5°C 62.8°F17.1°C 81% 4.0 mph SSW6.4 kmh SSW 11.0 mph17.7 kmh 29.83 in1010.2 mb 0.00 in0.0 mm 0.00 in0.0 mm 0.06 in1.5 mm
02:45 PM 68.3°F20.2°C 64.3°F17.9°C 87% 3.0 mph SSW4.8 kmh SSW 8.0 mph12.9 kmh 29.83 in1010.2 mb 0.00 in0.0 mm 0.00 in0.0 mm 0.06 in1.5 mm
02:40 PM 67.4°F19.7°C 64.0°F17.8°C 89% 4.0 mph SSW6.4 kmh SSW 8.0 mph12.9 kmh 29.83 in1010.2 mb 0.00 in0.0 mm 0.00 in0.0 mm 0.06 in1.5 mm
02:35 PM 66.8°F19.3°C 62.8°F17.1°C 87% 3.0 mph SSW4.8 kmh SSW 7.0 mph11.3 kmh 29.83 in1010.2 mb 0.00 in0.0 mm 0.00 in0.0 mm 0.06 in1.5 mm
02:30 PM 66.8°F19.3°C 63.5°F17.5°C 89% 3.0 mph S4.8 kmh S 7.0 mph11.3 kmh 29.83 in1010.2 mb 0.00 in0.0 mm 0.00 in0.0 mm 0.06 in1.5 mm
02:25 PM 66.6°F19.2°C 63.3°F17.4°C 89% 3.0 mph S4.8 kmh S 7.0 mph11.3 kmh 29.83 in1010.2 mb 0.00 in0.0 mm 0.00 in0.0 mm 0.06 in1.5 mm
02:20 PM 66.5°F19.2°C 63.5°F17.5°C 90% 2.0 mph SSW3.2 kmh SSW 6.0 mph9.7 kmh 29.82 in1009.8 mb 0.00 in0.0 mm 0.00 in0.0 mm 0.06 in1.5 mm
02:15 PM 66.1°F18.9°C 63.1°F17.3°C 90% 2.0 mph SSW3.2 kmh SSW 4.0 mph6.4 kmh 29.82 in1009.8 mb 0.00 in0.0 mm 0.00 in0.0 mm 0.06 in1.5 mm
02:10 PM 65.9°F18.8°C 63.2°F17.3°C 91% 2.0 mph SW3.2 kmh SW 5.0 mph8.0 kmh 29.82 in1009.8 mb 0.01 in0.3 mm 0.00 in0.0 mm 0.06 in1.5 mm
02:05 PM 65.8°F18.8°C 63.1°F17.3°C 91% 2.0 mph SW3.2 kmh SW 5.0 mph8.0 kmh 29.83 in1010.2 mb 0.01 in0.3 mm 0.00 in0.0 mm 0.06 in1.5 mm
02:00 PM 65.8°F18.8°C 63.7°F17.6°C 93% 3.0 mph SW4.8 kmh SW 9.0 mph14.5 kmh 29.83 in1010.2 mb 0.01 in0.3 mm 0.00 in0.0 mm 0.06 in1.5 mm
01:55 PM 65.7°F18.7°C 63.6°F17.6°C 93% 2.0 mph S3.2 kmh S 9.0 mph14.5 kmh 29.83 in1010.2 mb 0.01 in0.3 mm 0.00 in0.0 mm 0.06 in1.5 mm
01:50 PM 65.6°F18.7°C 63.5°F17.5°C 93% 2.0 mph S3.2 kmh S 6.0 mph9.7 kmh 29.83 in1010.2 mb 0.01 in0.3 mm 0.00 in0.0 mm 0.06 in1.5 mm
01:45 PM 65.6°F18.7°C 63.8°F17.7°C 94% 3.0 mph S4.8 kmh S 8.0 mph12.9 kmh 29.83 in1010.2 mb 0.01 in0.3 mm 0.00 in0.0 mm 0.06 in1.5 mm
01:40 PM 65.4°F18.6°C 63.9°F17.7°C 95% 3.0 mph S4.8 kmh S 8.0 mph12.9 kmh 29.83 in1010.2 mb 0.01 in0.3 mm 0.00 in0.0 mm 0.06 in1.5 mm
01:35 PM 65.2°F18.4°C 64.0°F17.8°C 96% 2.0 mph S3.2 kmh S 6.0 mph9.7 kmh 29.84 in1010.5 mb 0.01 in0.3 mm 0.00 in0.0 mm 0.06 in1.5 mm
01:30 PM 64.9°F18.3°C 63.7°F17.6°C 96% 2.0 mph S3.2 kmh S 5.0 mph8.0 kmh 29.83 in1010.2 mb 0.01 in0.3 mm 0.00 in0.0 mm 0.06 in1.5 mm
01:25 PM 64.6°F18.1°C 63.4°F17.4°C 96% 2.0 mph S3.2 kmh S 6.0 mph9.7 kmh 29.83 in1010.2 mb 0.01 in0.3 mm 0.00 in0.0 mm 0.06 in1.5 mm
01:20 PM 64.4°F18.0°C 62.9°F17.2°C 95% 3.0 mph S4.8 kmh S 6.0 mph9.7 kmh 29.83 in1010.2 mb 0.01 in0.3 mm 0.00 in0.0 mm 0.06 in1.5 mm
01:15 PM 64.4°F18.0°C 62.9°F17.2°C 95% 3.0 mph S4.8 kmh S 6.0 mph9.7 kmh 29.83 in1010.2 mb 0.01 in0.3 mm 0.00 in0.0 mm 0.06 in1.5 mm
01:10 PM 64.4°F18.0°C 63.2°F17.3°C 96% 2.0 mph SSW3.2 kmh SSW 4.0 mph6.4 kmh 29.84 in1010.5 mb 0.01 in0.3 mm 0.00 in0.0 mm 0.05 in1.3 mm
01:05 PM 64.4°F18.0°C 63.2°F17.3°C 96% 2.0 mph SSW3.2 kmh SSW 4.0 mph6.4 kmh 29.84 in1010.5 mb 0.01 in0.3 mm 0.00 in0.0 mm 0.05 in1.3 mm
01:00 PM 64.3°F17.9°C 63.1°F17.3°C 96% 1.0 mph SSW1.6 kmh SSW 3.0 mph4.8 kmh 29.84 in1010.5 mb 0.01 in0.3 mm 0.00 in0.0 mm 0.05 in1.3 mm
12:55 PM 64.3°F17.9°C 63.1°F17.3°C 96% 1.0 mph SSW1.6 kmh SSW 3.0 mph4.8 kmh 29.84 in1010.5 mb 0.01 in0.3 mm 0.00 in0.0 mm 0.05 in1.3 mm
12:50 PM 64.1°F17.8°C 62.9°F17.2°C 96% 2.0 mph SSW3.2 kmh SSW 3.0 mph4.8 kmh 29.84 in1010.5 mb 0.01 in0.3 mm 0.00 in0.0 mm 0.05 in1.3 mm
12:45 PM 63.9°F17.7°C 62.7°F17.1°C 96% 2.0 mph SSW3.2 kmh SSW 5.0 mph8.0 kmh 29.84 in1010.5 mb 0.01 in0.3 mm 0.00 in0.0 mm 0.05 in1.3 mm
12:40 PM 63.8°F17.7°C 62.6°F17.0°C 96% 3.0 mph SSW4.8 kmh SSW 7.0 mph11.3 kmh 29.84 in1010.5 mb 0.01 in0.3 mm 0.00 in0.0 mm 0.05 in1.3 mm
12:35 PM 63.8°F17.7°C 62.6°F17.0°C 96% 3.0 mph SSW4.8 kmh SSW 7.0 mph11.3 kmh 29.84 in1010.5 mb 0.01 in0.3 mm 0.00 in0.0 mm 0.05 in1.3 mm
12:30 PM 63.8°F17.7°C 62.6°F17.0°C 96% 3.0 mph SSW4.8 kmh SSW 7.0 mph11.3 kmh 29.84 in1010.5 mb 0.01 in0.3 mm 0.00 in0.0 mm 0.05 in1.3 mm
12:25 PM 63.7°F17.6°C 62.5°F16.9°C 96% 4.0 mph SSW6.4 kmh SSW 8.0 mph12.9 kmh 29.84 in1010.5 mb 0.01 in0.3 mm 0.00 in0.0 mm 0.05 in1.3 mm
12:20 PM 63.6°F17.6°C 62.1°F16.7°C 95% 4.0 mph SSW6.4 kmh SSW 9.0 mph14.5 kmh 29.84 in1010.5 mb 0.01 in0.3 mm 0.00 in0.0 mm 0.05 in1.3 mm
12:15 PM 63.6°F17.6°C 62.1°F16.7°C 95% 4.0 mph SSW6.4 kmh SSW 9.0 mph14.5 kmh 29.83 in1010.2 mb 0.01 in0.3 mm 0.12 in3.0 mm 0.05 in1.3 mm
12:10 PM 63.6°F17.6°C 62.1°F16.7°C 95% 4.0 mph SSW6.4 kmh SSW 8.0 mph12.9 kmh 29.84 in1010.5 mb 0.00 in0.0 mm 0.00 in0.0 mm 0.04 in1.0 mm
12:05 PM 63.6°F17.6°C 61.8°F16.6°C 94% 5.0 mph SSW8.0 kmh SSW 10.0 mph16.1 kmh 29.84 in1010.5 mb 0.00 in0.0 mm 0.00 in0.0 mm 0.04 in1.0 mm
12:00 PM 63.7°F17.6°C 61.9°F16.6°C 94% 5.0 mph SSW8.0 kmh SSW 10.0 mph16.1 kmh 29.84 in1010.5 mb 0.00 in0.0 mm 0.00 in0.0 mm 0.04 in1.0 mm
11:55 AM 63.7°F17.6°C 61.9°F16.6°C 94% 5.0 mph SSW8.0 kmh SSW 8.0 mph12.9 kmh 29.84 in1010.5 mb 0.00 in0.0 mm 0.00 in0.0 mm 0.04 in1.0 mm
11:50 AM 63.5°F17.5°C 61.7°F16.5°C 94% 4.0 mph SSW6.4 kmh SSW 7.0 mph11.3 kmh 29.84 in1010.5 mb 0.00 in0.0 mm 0.00 in0.0 mm 0.04 in1.0 mm
11:45 AM 63.5°F17.5°C 61.7°F16.5°C 94% 4.0 mph SSW6.4 kmh SSW 7.0 mph11.3 kmh 29.84 in1010.5 mb 0.00 in0.0 mm 0.00 in0.0 mm 0.04 in1.0 mm
11:40 AM 63.6°F17.6°C 61.8°F16.6°C 94% 4.0 mph SSW6.4 kmh SSW 7.0 mph11.3 kmh 29.84 in1010.5 mb 0.00 in0.0 mm 0.00 in0.0 mm 0.04 in1.0 mm
11:35 AM 63.7°F17.6°C 61.9°F16.6°C 94% 4.0 mph SSW6.4 kmh SSW 7.0 mph11.3 kmh 29.84 in1010.5 mb 0.00 in0.0 mm 0.00 in0.0 mm 0.04 in1.0 mm
11:30 AM 63.6°F17.6°C 61.5°F16.4°C 93% 4.0 mph SSW6.4 kmh SSW 7.0 mph11.3 kmh 29.84 in1010.5 mb 0.00 in0.0 mm 0.00 in0.0 mm 0.04 in1.0 mm
11:25 AM 63.5°F17.5°C 61.7°F16.5°C 94% 4.0 mph SSW6.4 kmh SSW 7.0 mph11.3 kmh 29.85 in1010.8 mb 0.01 in0.3 mm 0.00 in0.0 mm 0.04 in1.0 mm
11:20 AM 63.5°F17.5°C 61.7°F16.5°C 94% 4.0 mph S6.4 kmh S 7.0 mph11.3 kmh 29.85 in1010.8 mb 0.01 in0.3 mm 0.00 in0.0 mm 0.04 in1.0 mm
11:15 AM 63.5°F17.5°C 61.7°F16.5°C 94% 3.0 mph SSW4.8 kmh SSW 7.0 mph11.3 kmh 29.85 in1010.8 mb 0.01 in0.3 mm 0.00 in0.0 mm 0.04 in1.0 mm
11:10 AM 63.5°F17.5°C 61.7°F16.5°C 94% 3.0 mph SSW4.8 kmh SSW 7.0 mph11.3 kmh 29.85 in1010.8 mb 0.01 in0.3 mm 0.00 in0.0 mm 0.04 in1.0 mm
11:05 AM 63.4°F17.4°C 61.6°F16.4°C 94% 3.0 mph SSW4.8 kmh SSW 6.0 mph9.7 kmh 29.85 in1010.8 mb 0.01 in0.3 mm 0.00 in0.0 mm 0.04 in1.0 mm
11:00 AM 63.4°F17.4°C 61.6°F16.4°C 94% 3.0 mph SSW4.8 kmh SSW 5.0 mph8.0 kmh 29.85 in1010.8 mb 0.01 in0.3 mm 0.00 in0.0 mm 0.04 in1.0 mm
10:55 AM 63.3°F17.4°C 61.5°F16.4°C 94% 4.0 mph SSW6.4 kmh SSW 9.0 mph14.5 kmh 29.85 in1010.8 mb 0.01 in0.3 mm 0.00 in0.0 mm 0.04 in1.0 mm
10:50 AM 63.3°F17.4°C 61.5°F16.4°C 94% 3.0 mph S4.8 kmh S 9.0 mph14.5 kmh 29.85 in1010.8 mb 0.01 in0.3 mm 0.00 in0.0 mm 0.04 in1.0 mm
10:45 AM 63.3°F17.4°C 61.5°F16.4°C 94% 3.0 mph SSW4.8 kmh SSW 5.0 mph8.0 kmh 29.85 in1010.8 mb 0.01 in0.3 mm 0.00 in0.0 mm 0.04 in1.0 mm
10:40 AM 63.3°F17.4°C 61.5°F16.4°C 94% 3.0 mph SSW4.8 kmh SSW 5.0 mph8.0 kmh 29.85 in1010.8 mb 0.01 in0.3 mm 0.00 in0.0 mm 0.04 in1.0 mm
10:35 AM 63.3°F17.4°C 61.2°F16.2°C 93% 4.0 mph SSW6.4 kmh SSW 6.0 mph9.7 kmh 29.85 in1010.8 mb 0.01 in0.3 mm 0.00 in0.0 mm 0.04 in1.0 mm
10:30 AM 63.4°F17.4°C 61.3°F16.3°C 93% 4.0 mph SSW6.4 kmh SSW 6.0 mph9.7 kmh 29.85 in1010.8 mb 0.01 in0.3 mm 0.12 in3.0 mm 0.04 in1.0 mm
10:25 AM 63.4°F17.4°C 61.3°F16.3°C 93% 4.0 mph SSW6.4 kmh SSW 7.0 mph11.3 kmh 29.86 in1011.2 mb 0.00 in0.0 mm 0.00 in0.0 mm 0.03 in0.8 mm
10:20 AM 63.3°F17.4°C 61.2°F16.2°C 93% 4.0 mph SSW6.4 kmh SSW 7.0 mph11.3 kmh 29.86 in1011.2 mb 0.00 in0.0 mm 0.00 in0.0 mm 0.03 in0.8 mm
10:15 AM 63.2°F17.3°C 61.1°F16.2°C 93% 4.0 mph SSW6.4 kmh SSW 9.0 mph14.5 kmh 29.86 in1011.2 mb 0.00 in0.0 mm 0.00 in0.0 mm 0.03 in0.8 mm
10:10 AM 63.2°F17.3°C 61.1°F16.2°C 93% 4.0 mph SSW6.4 kmh SSW 9.0 mph14.5 kmh 29.86 in1011.2 mb 0.00 in0.0 mm 0.00 in0.0 mm 0.03 in0.8 mm
10:05 AM 63.1°F17.3°C 60.7°F15.9°C 92% 4.0 mph S6.4 kmh S 7.0 mph11.3 kmh 29.86 in1011.2 mb 0.00 in0.0 mm 0.00 in0.0 mm 0.03 in0.8 mm
10:00 AM 63.1°F17.3°C 60.7°F15.9°C 92% 3.0 mph S4.8 kmh S 6.0 mph9.7 kmh 29.86 in1011.2 mb 0.00 in0.0 mm 0.00 in0.0 mm 0.03 in0.8 mm
09:55 AM 63.1°F17.3°C 60.4°F15.8°C 91% 3.0 mph S4.8 kmh S 6.0 mph9.7 kmh 29.86 in1011.2 mb 0.00 in0.0 mm 0.00 in0.0 mm 0.03 in0.8 mm
09:50 AM 63.2°F17.3°C 60.5°F15.8°C 91% 2.0 mph S3.2 kmh S 6.0 mph9.7 kmh 29.86 in1011.2 mb 0.00 in0.0 mm 0.00 in0.0 mm 0.03 in0.8 mm
09:45 AM 63.2°F17.3°C 60.2°F15.7°C 90% 2.0 mph S3.2 kmh S 6.0 mph9.7 kmh 29.86 in1011.2 mb 0.00 in0.0 mm 0.00 in0.0 mm 0.03 in0.8 mm
09:40 AM 63.3°F17.4°C 60.3°F15.7°C 90% 4.0 mph SSW6.4 kmh SSW 9.0 mph14.5 kmh 29.86 in1011.2 mb 0.00 in0.0 mm 0.00 in0.0 mm 0.03 in0.8 mm
09:35 AM 63.4°F17.4°C 60.1°F15.6°C 89% 4.0 mph SSW6.4 kmh SSW 9.0 mph14.5 kmh 29.86 in1011.2 mb 0.00 in0.0 mm 0.00 in0.0 mm 0.03 in0.8 mm
09:30 AM 63.5°F17.5°C 60.2°F15.7°C 89% 5.0 mph SSW8.0 kmh SSW 10.0 mph16.1 kmh 29.86 in1011.2 mb 0.00 in0.0 mm 0.00 in0.0 mm 0.03 in0.8 mm
09:25 AM 63.7°F17.6°C 60.4°F15.8°C 89% 6.0 mph SSW9.7 kmh SSW 11.0 mph17.7 kmh 29.86 in1011.2 mb 0.00 in0.0 mm 0.00 in0.0 mm 0.03 in0.8 mm
09:20 AM 63.9°F17.7°C 60.9°F16.1°C 90% 6.0 mph SSW9.7 kmh SSW 14.0 mph22.5 kmh 29.86 in1011.2 mb 0.00 in0.0 mm 0.00 in0.0 mm 0.03 in0.8 mm
09:15 AM 64.1°F17.8°C 61.4°F16.3°C 91% 4.0 mph SSW6.4 kmh SSW 14.0 mph22.5 kmh 29.86 in1011.2 mb 0.00 in0.0 mm 0.00 in0.0 mm 0.03 in0.8 mm
09:10 AM 64.2°F17.9°C 61.5°F16.4°C 91% 4.0 mph SSW6.4 kmh SSW 8.0 mph12.9 kmh 29.87 in1011.5 mb 0.00 in0.0 mm 0.00 in0.0 mm 0.03 in0.8 mm
09:05 AM 64.3°F17.9°C 61.6°F16.4°C 91% 4.0 mph SSW6.4 kmh SSW 8.0 mph12.9 kmh 29.87 in1011.5 mb 0.00 in0.0 mm 0.00 in0.0 mm 0.03 in0.8 mm
09:00 AM 64.4°F18.0°C 61.7°F16.5°C 91% 4.0 mph SSW6.4 kmh SSW 8.0 mph12.9 kmh 29.87 in1011.5 mb 0.00 in0.0 mm 0.00 in0.0 mm 0.03 in0.8 mm
08:55 AM 64.4°F18.0°C 62.0°F16.7°C 92% 4.0 mph SSW6.4 kmh SSW 7.0 mph11.3 kmh 29.87 in1011.5 mb 0.00 in0.0 mm 0.00 in0.0 mm 0.03 in0.8 mm
08:50 AM 64.1°F17.8°C 62.0°F16.7°C 93% 4.0 mph SSW6.4 kmh SSW 7.0 mph11.3 kmh 29.87 in1011.5 mb 0.00 in0.0 mm 0.00 in0.0 mm 0.03 in0.8 mm
08:45 AM 63.7°F17.6°C 61.6°F16.4°C 93% 4.0 mph SSW6.4 kmh SSW 7.0 mph11.3 kmh 29.87 in1011.5 mb 0.00 in0.0 mm 0.00 in0.0 mm 0.03 in0.8 mm
08:40 AM 63.5°F17.5°C 61.4°F16.3°C 93% 4.0 mph S6.4 kmh S 7.0 mph11.3 kmh 29.88 in1011.9 mb 0.00 in0.0 mm 0.00 in0.0 mm 0.03 in0.8 mm
08:35 AM 63.4°F17.4°C 61.3°F16.3°C 93% 3.0 mph S4.8 kmh S 7.0 mph11.3 kmh 29.88 in1011.9 mb 0.00 in0.0 mm 0.00 in0.0 mm 0.03 in0.8 mm
08:30 AM 63.3°F17.4°C 61.5°F16.4°C 94% 2.0 mph S3.2 kmh S 6.0 mph9.7 kmh 29.88 in1011.9 mb 0.00 in0.0 mm 0.00 in0.0 mm 0.03 in0.8 mm
08:25 AM 63.2°F17.3°C 61.4°F16.3°C 94% 1.0 mph S1.6 kmh S 4.0 mph6.4 kmh 29.88 in1011.9 mb 0.00 in0.0 mm 0.00 in0.0 mm 0.03 in0.8 mm
08:20 AM 63.0°F17.2°C 61.2°F16.2°C 94% 1.0 mph S1.6 kmh S 4.0 mph6.4 kmh 29.88 in1011.9 mb 0.00 in0.0 mm 0.00 in0.0 mm 0.03 in0.8 mm
08:15 AM 63.0°F17.2°C 61.5°F16.4°C 95% Calm Calm 2.0 mph3.2 kmh 29.88 in1011.9 mb 0.00 in0.0 mm 0.00 in0.0 mm 0.03 in0.8 mm
08:10 AM 63.0°F17.2°C 61.8°F16.6°C 96% Calm Calm 1.0 mph1.6 kmh 29.88 in1011.9 mb 0.00 in0.0 mm 0.00 in0.0 mm 0.03 in0.8 mm
08:05 AM 62.9°F17.2°C 61.4°F16.3°C 95% Calm Calm 1.0 mph1.6 kmh 29.88 in1011.9 mb 0.00 in0.0 mm 0.00 in0.0 mm 0.03 in0.8 mm
08:00 AM 62.8°F17.1°C 61.3°F16.3°C 95% Calm Calm 1.0 mph1.6 kmh 29.88 in1011.9 mb 0.00 in0.0 mm 0.00 in0.0 mm 0.03 in0.8 mm
07:55 AM 62.7°F17.1°C 61.2°F16.2°C 95% Calm Calm 1.0 mph1.6 kmh 29.88 in1011.9 mb 0.00 in0.0 mm 0.00 in0.0 mm 0.03 in0.8 mm
07:50 AM 62.6°F17.0°C 61.1°F16.2°C 95% Calm Calm 1.0 mph1.6 kmh 29.88 in1011.9 mb 0.00 in0.0 mm 0.00 in0.0 mm 0.03 in0.8 mm
07:45 AM 62.5°F16.9°C 61.0°F16.1°C 95% Calm Calm 1.0 mph1.6 kmh 29.88 in1011.9 mb 0.00 in0.0 mm 0.00 in0.0 mm 0.03 in0.8 mm
07:40 AM 62.4°F16.9°C 60.9°F16.1°C 95% 1.0 mph S1.6 kmh S 2.0 mph3.2 kmh 29.88 in1011.9 mb 0.00 in0.0 mm 0.00 in0.0 mm 0.03 in0.8 mm
07:35 AM 62.3°F16.8°C 60.8°F16.0°C 95% Calm Calm 3.0 mph4.8 kmh 29.89 in1012.2 mb 0.00 in0.0 mm 0.00 in0.0 mm 0.03 in0.8 mm
07:30 AM 62.3°F16.8°C 60.8°F16.0°C 95% 1.0 mph SSW1.6 kmh SSW 4.0 mph6.4 kmh 29.89 in1012.2 mb 0.00 in0.0 mm 0.00 in0.0 mm 0.03 in0.8 mm
07:25 AM 62.2°F16.8°C 60.8°F16.0°C 95% 1.0 mph SSW1.6 kmh SSW 4.0 mph6.4 kmh 29.89 in1012.2 mb 0.00 in0.0 mm 0.00 in0.0 mm 0.03 in0.8 mm
07:20 AM 62.1°F16.7°C 60.7°F15.9°C 95% 1.0 mph SSW1.6 kmh SSW 3.0 mph4.8 kmh 29.89 in1012.2 mb 0.00 in0.0 mm 0.00 in0.0 mm 0.03 in0.8 mm
07:15 AM 62.0°F16.7°C 60.6°F15.9°C 95% 1.0 mph SSW1.6 kmh SSW 4.0 mph6.4 kmh 29.89 in1012.2 mb 0.00 in0.0 mm 0.00 in0.0 mm 0.03 in0.8 mm
07:10 AM 61.9°F16.6°C 60.5°F15.8°C 95% 1.0 mph SSW1.6 kmh SSW 4.0 mph6.4 kmh 29.88 in1011.9 mb 0.00 in0.0 mm 0.00 in0.0 mm 0.03 in0.8 mm
07:05 AM 61.9°F16.6°C 60.7°F15.9°C 96% Calm Calm 1.0 mph1.6 kmh 29.89 in1012.2 mb 0.00 in0.0 mm 0.00 in0.0 mm 0.03 in0.8 mm
07:00 AM 61.8°F16.6°C 60.6°F15.9°C 96% Calm Calm 1.0 mph1.6 kmh 29.89 in1012.2 mb 0.00 in0.0 mm 0.00 in0.0 mm 0.03 in0.8 mm
06:55 AM 61.8°F16.6°C 60.6°F15.9°C 96% Calm Calm 1.0 mph1.6 kmh 29.89 in1012.2 mb 0.00 in0.0 mm 0.00 in0.0 mm 0.03 in0.8 mm
06:50 AM 61.7°F16.5°C 60.3°F15.7°C 95% 1.0 mph SW1.6 kmh SW 3.0 mph4.8 kmh 29.89 in1012.2 mb 0.00 in0.0 mm 0.00 in0.0 mm 0.03 in0.8 mm
06:45 AM 61.7°F16.5°C 60.3°F15.7°C 95% 2.0 mph SSW3.2 kmh SSW 5.0 mph8.0 kmh 29.89 in1012.2 mb 0.00 in0.0 mm 0.00 in0.0 mm 0.03 in0.8 mm
06:40 AM 61.6°F16.4°C 60.2°F15.7°C 95% 2.0 mph S3.2 kmh S 5.0 mph8.0 kmh 29.89 in1012.2 mb 0.00 in0.0 mm 0.00 in0.0 mm 0.03 in0.8 mm
06:35 AM 61.6°F16.4°C 60.2°F15.7°C 95% 1.0 mph SSE1.6 kmh SSE 4.0 mph6.4 kmh 29.90 in1012.5 mb 0.00 in0.0 mm 0.00 in0.0 mm 0.03 in0.8 mm
06:30 AM 61.6°F16.4°C 60.2°F15.7°C 95% 1.0 mph SSE1.6 kmh SSE 3.0 mph4.8 kmh 29.90 in1012.5 mb 0.00 in0.0 mm 0.00 in0.0 mm 0.03 in0.8 mm
06:25 AM 61.6°F16.4°C 60.2°F15.7°C 95% 1.0 mph SE1.6 kmh SE 3.0 mph4.8 kmh 29.90 in1012.5 mb 0.00 in0.0 mm 0.00 in0.0 mm 0.03 in0.8 mm
06:20 AM 61.6°F16.4°C 60.2°F15.7°C 95% 2.0 mph S3.2 kmh S 4.0 mph6.4 kmh 29.90 in1012.5 mb 0.00 in0.0 mm 0.00 in0.0 mm 0.03 in0.8 mm
06:15 AM 61.5°F16.4°C 60.3°F15.7°C 96% 1.0 mph SSW1.6 kmh SSW 4.0 mph6.4 kmh 29.90 in1012.5 mb 0.00 in0.0 mm 0.00 in0.0 mm 0.03 in0.8 mm
06:10 AM 61.5°F16.4°C 60.3°F15.7°C 96% Calm Calm 3.0 mph4.8 kmh 29.90 in1012.5 mb 0.00 in0.0 mm 0.00 in0.0 mm 0.03 in0.8 mm
06:05 AM 61.5°F16.4°C 60.3°F15.7°C 96% Calm Calm 1.0 mph1.6 kmh 29.90 in1012.5 mb 0.00 in0.0 mm 0.00 in0.0 mm 0.03 in0.8 mm
06:00 AM 61.5°F16.4°C 60.3°F15.7°C 96% Calm Calm 2.0 mph3.2 kmh 29.90 in1012.5 mb 0.00 in0.0 mm 0.00 in0.0 mm 0.03 in0.8 mm
05:55 AM 61.6°F16.4°C 60.4°F15.8°C 96% 1.0 mph SSW1.6 kmh SSW 2.0 mph3.2 kmh 29.90 in1012.5 mb 0.00 in0.0 mm 0.00 in0.0 mm 0.03 in0.8 mm
05:50 AM 61.6°F16.4°C 60.2°F15.7°C 95% 1.0 mph SSW1.6 kmh SSW 2.0 mph3.2 kmh 29.90 in1012.5 mb 0.00 in0.0 mm 0.00 in0.0 mm 0.03 in0.8 mm
05:45 AM 61.6°F16.4°C 60.2°F15.7°C 95% 1.0 mph SSW1.6 kmh SSW 3.0 mph4.8 kmh 29.90 in1012.5 mb 0.00 in0.0 mm 0.00 in0.0 mm 0.03 in0.8 mm
05:40 AM 61.6°F16.4°C 60.2°F15.7°C 95% 2.0 mph SSW3.2 kmh SSW 3.0 mph4.8 kmh 29.90 in1012.5 mb 0.00 in0.0 mm 0.00 in0.0 mm 0.03 in0.8 mm
05:35 AM 61.6°F16.4°C 60.2°F15.7°C 95% 2.0 mph SSW3.2 kmh SSW 4.0 mph6.4 kmh 29.90 in1012.5 mb 0.00 in0.0 mm 0.00 in0.0 mm 0.03 in0.8 mm
05:30 AM 61.6°F16.4°C 60.4°F15.8°C 96% 2.0 mph SSW3.2 kmh SSW 4.0 mph6.4 kmh 29.90 in1012.5 mb 0.00 in0.0 mm 0.00 in0.0 mm 0.03 in0.8 mm
05:25 AM 61.6°F16.4°C 60.4°F15.8°C 96% 1.0 mph SSW1.6 kmh SSW 3.0 mph4.8 kmh 29.90 in1012.5 mb 0.00 in0.0 mm 0.00 in0.0 mm 0.03 in0.8 mm
05:20 AM 61.6°F16.4°C 60.4°F15.8°C 96% 1.0 mph SSW1.6 kmh SSW 2.0 mph3.2 kmh 29.90 in1012.5 mb 0.00 in0.0 mm 0.00 in0.0 mm 0.03 in0.8 mm
05:15 AM 61.6°F16.4°C 60.4°F15.8°C 96% 1.0 mph SSW1.6 kmh SSW 2.0 mph3.2 kmh 29.90 in1012.5 mb 0.00 in0.0 mm 0.00 in0.0 mm 0.03 in0.8 mm
05:10 AM 61.6°F16.4°C 60.4°F15.8°C 96% 1.0 mph SSW1.6 kmh SSW 3.0 mph4.8 kmh 29.90 in1012.5 mb 0.00 in0.0 mm 0.00 in0.0 mm 0.03 in0.8 mm
05:05 AM 61.6°F16.4°C 60.4°F15.8°C 96% 1.0 mph SSW1.6 kmh SSW 3.0 mph4.8 kmh 29.90 in1012.5 mb 0.00 in0.0 mm 0.00 in0.0 mm 0.03 in0.8 mm
05:00 AM 61.6°F16.4°C 60.4°F15.8°C 96% Calm Calm 2.0 mph3.2 kmh 29.91 in1012.9 mb 0.00 in0.0 mm 0.00 in0.0 mm 0.03 in0.8 mm
04:55 AM 61.6°F16.4°C 60.4°F15.8°C 96% 1.0 mph SSW1.6 kmh SSW 2.0 mph3.2 kmh 29.91 in1012.9 mb 0.00 in0.0 mm 0.00 in0.0 mm 0.03 in0.8 mm
04:50 AM 61.7°F16.5°C 60.3°F15.7°C 95% 1.0 mph SSW1.6 kmh SSW 3.0 mph4.8 kmh 29.90 in1012.5 mb 0.00 in0.0 mm 0.00 in0.0 mm 0.03 in0.8 mm
04:45 AM 61.6°F16.4°C 60.2°F15.7°C 95% 1.0 mph SSW1.6 kmh SSW 3.0 mph4.8 kmh 29.91 in1012.9 mb 0.00 in0.0 mm 0.00 in0.0 mm 0.03 in0.8 mm
04:40 AM 61.6°F16.4°C 60.2°F15.7°C 95% 1.0 mph SSW1.6 kmh SSW 4.0 mph6.4 kmh 29.91 in1012.9 mb 0.00 in0.0 mm 0.00 in0.0 mm 0.03 in0.8 mm
04:35 AM 61.7°F16.5°C 60.3°F15.7°C 95% 2.0 mph SSW3.2 kmh SSW 4.0 mph6.4 kmh 29.91 in1012.9 mb 0.00 in0.0 mm 0.00 in0.0 mm 0.03 in0.8 mm
04:30 AM 61.7°F16.5°C 60.3°F15.7°C 95% 3.0 mph SSW4.8 kmh SSW 7.0 mph11.3 kmh 29.91 in1012.9 mb 0.00 in0.0 mm 0.00 in0.0 mm 0.03 in0.8 mm
04:25 AM 61.6°F16.4°C 60.2°F15.7°C 95% 3.0 mph SSW4.8 kmh SSW 7.0 mph11.3 kmh 29.90 in1012.5 mb 0.00 in0.0 mm 0.00 in0.0 mm 0.03 in0.8 mm
04:20 AM 61.6°F16.4°C 60.2°F15.7°C 95% 2.0 mph SSW3.2 kmh SSW 5.0 mph8.0 kmh 29.91 in1012.9 mb 0.00 in0.0 mm 0.00 in0.0 mm 0.03 in0.8 mm
04:15 AM 61.5°F16.4°C 60.1°F15.6°C 95% 1.0 mph S1.6 kmh S 3.0 mph4.8 kmh 29.91 in1012.9 mb 0.01 in0.3 mm 0.00 in0.0 mm 0.03 in0.8 mm
04:10 AM 61.4°F16.3°C 60.0°F15.6°C 95% Calm Calm 1.0 mph1.6 kmh 29.91 in1012.9 mb 0.02 in0.5 mm 0.00 in0.0 mm 0.03 in0.8 mm
04:05 AM 61.4°F16.3°C 60.0°F15.6°C 95% Calm Calm 2.0 mph3.2 kmh 29.91 in1012.9 mb 0.02 in0.5 mm 0.00 in0.0 mm 0.03 in0.8 mm
04:00 AM 61.4°F16.3°C 60.0°F15.6°C 95% Calm Calm 2.0 mph3.2 kmh 29.91 in1012.9 mb 0.02 in0.5 mm 0.00 in0.0 mm 0.03 in0.8 mm
03:55 AM 61.4°F16.3°C 60.0°F15.6°C 95% Calm Calm 2.0 mph3.2 kmh 29.91 in1012.9 mb 0.02 in0.5 mm 0.00 in0.0 mm 0.03 in0.8 mm
03:50 AM 61.4°F16.3°C 60.0°F15.6°C 95% 1.0 mph S1.6 kmh S 4.0 mph6.4 kmh 29.91 in1012.9 mb 0.02 in0.5 mm 0.00 in0.0 mm 0.03 in0.8 mm
03:45 AM 61.5°F16.4°C 60.1°F15.6°C 95% 1.0 mph S1.6 kmh S 4.0 mph6.4 kmh 29.91 in1012.9 mb 0.02 in0.5 mm 0.00 in0.0 mm 0.03 in0.8 mm
03:40 AM 61.4°F16.3°C 60.0°F15.6°C 95% Calm Calm 3.0 mph4.8 kmh 29.91 in1012.9 mb 0.02 in0.5 mm 0.00 in0.0 mm 0.03 in0.8 mm
03:35 AM 61.4°F16.3°C 60.0°F15.6°C 95% 1.0 mph S1.6 kmh S 3.0 mph4.8 kmh 29.91 in1012.9 mb 0.02 in0.5 mm 0.00 in0.0 mm 0.03 in0.8 mm
03:30 AM 61.5°F16.4°C 60.1°F15.6°C 95% 1.0 mph S1.6 kmh S 3.0 mph4.8 kmh 29.91 in1012.9 mb 0.02 in0.5 mm 0.00 in0.0 mm 0.03 in0.8 mm
03:25 AM 61.6°F16.4°C 60.2°F15.7°C 95% 1.0 mph S1.6 kmh S 3.0 mph4.8 kmh 29.91 in1012.9 mb 0.02 in0.5 mm 0.00 in0.0 mm 0.03 in0.8 mm
03:20 AM 61.6°F16.4°C 59.9°F15.5°C 94% 1.0 mph S1.6 kmh S 3.0 mph4.8 kmh 29.91 in1012.9 mb 0.02 in0.5 mm 0.12 in3.0 mm 0.03 in0.8 mm
03:15 AM 61.6°F16.4°C 59.9°F15.5°C 94% 1.0 mph S1.6 kmh S 3.0 mph4.8 kmh 29.92 in1013.2 mb 0.01 in0.3 mm 0.12 in3.0 mm 0.02 in0.5 mm
03:10 AM 61.6°F16.4°C 59.9°F15.5°C 94% 2.0 mph S3.2 kmh S 4.0 mph6.4 kmh 29.92 in1013.2 mb 0.00 in0.0 mm 0.00 in0.0 mm 0.01 in0.3 mm
03:05 AM 61.7°F16.5°C 60.0°F15.6°C 94% 2.0 mph SSW3.2 kmh SSW 4.0 mph6.4 kmh 29.92 in1013.2 mb 0.00 in0.0 mm 0.00 in0.0 mm 0.01 in0.3 mm
03:00 AM 61.7°F16.5°C 59.7°F15.4°C 93% 2.0 mph SSW3.2 kmh SSW 4.0 mph6.4 kmh 29.92 in1013.2 mb 0.00 in0.0 mm 0.00 in0.0 mm 0.01 in0.3 mm
02:55 AM 61.7°F16.5°C 59.7°F15.4°C 93% 2.0 mph S3.2 kmh S 4.0 mph6.4 kmh 29.92 in1013.2 mb 0.00 in0.0 mm 0.00 in0.0 mm 0.01 in0.3 mm
02:50 AM 61.8°F16.6°C 59.8°F15.4°C 93% 2.0 mph S3.2 kmh S 3.0 mph4.8 kmh 29.92 in1013.2 mb 0.00 in0.0 mm 0.00 in0.0 mm 0.01 in0.3 mm
02:45 AM 61.7°F16.5°C 59.7°F15.4°C 93% 2.0 mph S3.2 kmh S 4.0 mph6.4 kmh 29.92 in1013.2 mb 0.00 in0.0 mm 0.00 in0.0 mm 0.01 in0.3 mm
02:40 AM 61.8°F16.6°C 59.8°F15.4°C 93% 2.0 mph SSW3.2 kmh SSW 4.0 mph6.4 kmh 29.92 in1013.2 mb 0.00 in0.0 mm 0.00 in0.0 mm 0.01 in0.3 mm
02:35 AM 61.8°F16.6°C 59.8°F15.4°C 93% 1.0 mph SSW1.6 kmh SSW 3.0 mph4.8 kmh 29.92 in1013.2 mb 0.01 in0.3 mm 0.00 in0.0 mm 0.01 in0.3 mm
02:30 AM 61.8°F16.6°C 59.8°F15.4°C 93% 2.0 mph SSW3.2 kmh SSW 4.0 mph6.4 kmh 29.92 in1013.2 mb 0.01 in0.3 mm 0.00 in0.0 mm 0.01 in0.3 mm
02:25 AM 61.9°F16.6°C 59.9°F15.5°C 93% 2.0 mph SSW3.2 kmh SSW 4.0 mph6.4 kmh 29.93 in1013.5 mb 0.01 in0.3 mm 0.00 in0.0 mm 0.01 in0.3 mm
02:20 AM 61.9°F16.6°C 59.9°F15.5°C 93% 2.0 mph SSW3.2 kmh SSW 4.0 mph6.4 kmh 29.93 in1013.5 mb 0.01 in0.3 mm 0.00 in0.0 mm 0.01 in0.3 mm
02:15 AM 62.0°F16.7°C 60.0°F15.6°C 93% 2.0 mph SSW3.2 kmh SSW 4.0 mph6.4 kmh 29.93 in1013.5 mb 0.01 in0.3 mm 0.00 in0.0 mm 0.01 in0.3 mm
02:10 AM 62.0°F16.7°C 59.6°F15.3°C 92% 2.0 mph SSW3.2 kmh SSW 4.0 mph6.4 kmh 29.93 in1013.5 mb 0.01 in0.3 mm 0.00 in0.0 mm 0.01 in0.3 mm
02:05 AM 62.1°F16.7°C 59.7°F15.4°C 92% 2.0 mph SSW3.2 kmh SSW 3.0 mph4.8 kmh 29.94 in1013.9 mb 0.01 in0.3 mm 0.00 in0.0 mm 0.01 in0.3 mm
02:00 AM 62.1°F16.7°C 59.7°F15.4°C 92% 2.0 mph SSW3.2 kmh SSW 6.0 mph9.7 kmh 29.94 in1013.9 mb 0.01 in0.3 mm 0.00 in0.0 mm 0.01 in0.3 mm
01:55 AM 62.1°F16.7°C 59.7°F15.4°C 92% 3.0 mph SSW4.8 kmh SSW 6.0 mph9.7 kmh 29.94 in1013.9 mb 0.01 in0.3 mm 0.00 in0.0 mm 0.01 in0.3 mm
01:50 AM 62.1°F16.7°C 59.7°F15.4°C 92% 3.0 mph SSW4.8 kmh SSW 7.0 mph11.3 kmh 29.94 in1013.9 mb 0.01 in0.3 mm 0.00 in0.0 mm 0.01 in0.3 mm
01:45 AM 62.1°F16.7°C 59.4°F15.2°C 91% 3.0 mph S4.8 kmh S 7.0 mph11.3 kmh 29.94 in1013.9 mb 0.01 in0.3 mm 0.00 in0.0 mm 0.01 in0.3 mm
01:40 AM 62.0°F16.7°C 59.3°F15.2°C 91% 2.0 mph S3.2 kmh S 5.0 mph8.0 kmh 29.95 in1014.2 mb 0.01 in0.3 mm 0.12 in3.0 mm 0.01 in0.3 mm
01:35 AM 62.0°F16.7°C 59.3°F15.2°C 91% 1.0 mph SSW1.6 kmh SSW 5.0 mph8.0 kmh 29.95 in1014.2 mb 0.00 in0.0 mm 0.00 in0.0 mm 0.00 in0.0 mm
01:30 AM 61.8°F16.6°C 59.1°F15.1°C 91% 1.0 mph SW1.6 kmh SW 3.0 mph4.8 kmh 29.95 in1014.2 mb 0.00 in0.0 mm 0.00 in0.0 mm 0.00 in0.0 mm
01:25 AM 61.9°F16.6°C 59.2°F15.1°C 91% 1.0 mph SW1.6 kmh SW 4.0 mph6.4 kmh 29.95 in1014.2 mb 0.00 in0.0 mm 0.00 in0.0 mm 0.00 in0.0 mm
01:20 AM 61.8°F16.6°C 59.1°F15.1°C 91% 1.0 mph SW1.6 kmh SW 4.0 mph6.4 kmh 29.95 in1014.2 mb 0.00 in0.0 mm 0.00 in0.0 mm 0.00 in0.0 mm
01:15 AM 61.6°F16.4°C 59.3°F15.2°C 92% 1.0 mph SW1.6 kmh SW 3.0 mph4.8 kmh 29.95 in1014.2 mb 0.00 in0.0 mm 0.00 in0.0 mm 0.00 in0.0 mm
01:10 AM 61.6°F16.4°C 59.3°F15.2°C 92% Calm Calm 2.0 mph3.2 kmh 29.95 in1014.2 mb 0.00 in0.0 mm 0.00 in0.0 mm 0.00 in0.0 mm
01:05 AM 61.7°F16.5°C 59.4°F15.2°C 92% Calm Calm 1.0 mph1.6 kmh 29.95 in1014.2 mb 0.00 in0.0 mm 0.00 in0.0 mm 0.00 in0.0 mm
01:00 AM 61.8°F16.6°C 59.1°F15.1°C 91% Calm Calm 1.0 mph1.6 kmh 29.96 in1014.6 mb 0.00 in0.0 mm 0.00 in0.0 mm 0.00 in0.0 mm
12:55 AM 62.2°F16.8°C 59.2°F15.1°C 90% Calm Calm 1.0 mph1.6 kmh 29.96 in1014.6 mb 0.00 in0.0 mm 0.00 in0.0 mm 0.00 in0.0 mm
12:50 AM 62.4°F16.9°C 59.1°F15.1°C 89% Calm Calm 1.0 mph1.6 kmh 29.96 in1014.6 mb 0.00 in0.0 mm 0.00 in0.0 mm 0.00 in0.0 mm
12:45 AM 62.7°F17.1°C 59.4°F15.2°C 89% 1.0 mph SW1.6 kmh SW 2.0 mph3.2 kmh 29.96 in1014.6 mb 0.00 in0.0 mm 0.00 in0.0 mm 0.00 in0.0 mm
12:40 AM 62.9°F17.2°C 59.3°F15.2°C 88% 1.0 mph SW1.6 kmh SW 3.0 mph4.8 kmh 29.96 in1014.6 mb 0.00 in0.0 mm 0.00 in0.0 mm 0.00 in0.0 mm
12:35 AM 62.9°F17.2°C 59.0°F15.0°C 87% 1.0 mph SSW1.6 kmh SSW 4.0 mph6.4 kmh 29.96 in1014.6 mb 0.00 in0.0 mm 0.00 in0.0 mm 0.00 in0.0 mm
12:30 AM 62.8°F17.1°C 58.9°F14.9°C 87% 1.0 mph SSW1.6 kmh SSW 4.0 mph6.4 kmh 29.95 in1014.2 mb 0.00 in0.0 mm 0.00 in0.0 mm 0.00 in0.0 mm
12:25 AM 63.0°F17.2°C 59.1°F15.1°C 87% 1.0 mph S1.6 kmh S 3.0 mph4.8 kmh 29.95 in1014.2 mb 0.00 in0.0 mm 0.00 in0.0 mm 0.00 in0.0 mm
12:20 AM 63.0°F17.2°C 58.7°F14.8°C 86% 2.0 mph S3.2 kmh S 3.0 mph4.8 kmh 29.95 in1014.2 mb 0.00 in0.0 mm 0.00 in0.0 mm 0.00 in0.0 mm
12:15 AM 62.9°F17.2°C 58.6°F14.8°C 86% 2.0 mph S3.2 kmh S 3.0 mph4.8 kmh 29.95 in1014.2 mb 0.00 in0.0 mm 0.00 in0.0 mm 0.00 in0.0 mm
12:10 AM 62.9°F17.2°C 59.0°F15.0°C 87% 2.0 mph S3.2 kmh S 3.0 mph4.8 kmh 29.95 in1014.2 mb 0.00 in0.0 mm 0.00 in0.0 mm 0.00 in0.0 mm
12:05 AM 62.9°F17.2°C 59.0°F15.0°C 87% 2.0 mph SSW3.2 kmh SSW 3.0 mph4.8 kmh 29.95 in1014.2 mb 0.00 in0.0 mm 0.00 in0.0 mm 0.00 in0.0 mm
12:00 AM 62.9°F17.2°C 59.0°F15.0°C 87% 2.0 mph SSW3.2 kmh SSW 4.0 mph6.4 kmh 29.95 in1014.2 mb 0.00 in0.0 mm 0.00 in0.0 mm 0.00 in0.0 mm